TimeEST,TemperatureF,Dew PointF,Humidity,Sea Level PressureIn,VisibilityMPH,Wind Direction,Wind SpeedMPH,Gust SpeedMPH,PrecipitationIn,Events,Conditions,WindDirDegrees,DateUTC
12:15 AM,18.3,11.7,75,30.53,10.0,East,6.9,-,N/A,,Clear,80,2013-12-08 05:15:00
12:35 AM,18.1,11.3,75,30.52,10.0,East,9.2,-,N/A,,Clear,80,2013-12-08 05:35:00
12:55 AM,18.0,11.1,75,30.52,10.0,East,6.9,-,N/A,,Clear,80,2013-12-08 05:55:00
1:15 AM,18.0,11.5,76,30.51,10.0,East,6.9,-,N/A,,Clear,90,2013-12-08 06:15:00
1:35 AM,18.3,11.5,75,30.51,10.0,East,8.1,-,N/A,,Clear,80,2013-12-08 06:35:00
1:55 AM,18.5,11.7,75,30.49,10.0,ENE,8.1,-,N/A,,Clear,70,2013-12-08 06:55:00
2:15 AM,18.9,11.8,74,30.50,10.0,East,5.8,-,N/A,,Clear,80,2013-12-08 07:15:00
2:35 AM,19.0,11.7,73,30.48,10.0,ENE,8.1,-,N/A,,Clear,70,2013-12-08 07:35:00
2:55 AM,19.2,12.2,74,30.49,10.0,ENE,8.1,-,N/A,,Clear,70,2013-12-08 07:55:00
3:15 AM,19.2,12.0,74,30.48,10.0,East,10.4,-,N/A,,Scattered Clouds,80,2013-12-08 08:15:00
3:35 AM,19.2,12.0,74,30.47,10.0,East,9.2,-,N/A,,Scattered Clouds,90,2013-12-08 08:35:00
3:55 AM,19.2,12.0,74,30.46,10.0,ENE,10.4,-,N/A,,Clear,70,2013-12-08 08:55:00
4:15 AM,19.4,12.0,73,30.47,10.0,East,9.2,-,N/A,,Scattered Clouds,80,2013-12-08 09:15:00
4:35 AM,19.4,12.2,74,30.45,10.0,East,11.5,-,N/A,,Scattered Clouds,80,2013-12-08 09:35:00
4:55 AM,19.4,12.2,74,30.43,10.0,East,9.2,-,N/A,,Scattered Clouds,80,2013-12-08 09:55:00
5:15 AM,19.4,12.2,74,30.43,10.0,East,9.2,-,N/A,,Scattered Clouds,80,2013-12-08 10:15:00
5:35 AM,19.4,12.6,75,30.44,10.0,East,10.4,-,N/A,,Overcast,90,2013-12-08 10:35:00
5:55 AM,19.8,12.9,75,30.43,10.0,East,10.4,-,N/A,,Overcast,80,2013-12-08 10:55:00
6:15 AM,19.9,13.3,75,30.44,10.0,ENE,9.2,-,N/A,,Overcast,70,2013-12-08 11:15:00
6:35 AM,20.1,13.3,75,30.42,10.0,East,9.2,-,N/A,,Overcast,80,2013-12-08 11:35:00
6:55 AM,20.1,13.8,77,30.43,10.0,ENE,10.4,-,N/A,,Overcast,70,2013-12-08 11:55:00
7:15 AM,20.1,13.8,77,30.40,10.0,East,10.4,-,N/A,,Overcast,80,2013-12-08 12:15:00
7:35 AM,20.3,14.0,77,30.40,10.0,ENE,10.4,-,N/A,,Overcast,70,2013-12-08 12:35:00
7:55 AM,20.3,14.2,77,30.39,10.0,East,11.5,-,N/A,,Overcast,80,2013-12-08 12:55:00
8:15 AM,20.3,14.2,77,30.36,10.0,East,12.7,17.3,N/A,,Overcast,80,2013-12-08 13:15:00
8:35 AM,20.5,14.4,77,30.35,10.0,East,12.7,19.6,N/A,,Overcast,80,2013-12-08 13:35:00
8:55 AM,20.7,14.9,78,30.34,1.5,ENE,15.0,-,N/A,Snow,Light Snow,70,2013-12-08 13:55:00
9:15 AM,20.8,15.4,80,30.33,10.0,East,10.4,16.1,N/A,,Overcast,80,2013-12-08 14:15:00
9:35 AM,21.2,15.3,78,30.34,10.0,East,16.1,-,N/A,,Overcast,100,2013-12-08 14:35:00
9:55 AM,21.7,15.3,76,30.33,10.0,East,17.3,24.2,N/A,,Overcast,90,2013-12-08 14:55:00
10:15 AM,22.3,15.6,76,30.33,10.0,East,15.0,19.6,N/A,,Overcast,80,2013-12-08 15:15:00
10:35 AM,22.8,15.8,74,30.32,10.0,East,19.6,-,N/A,,Overcast,90,2013-12-08 15:35:00
10:55 AM,22.8,15.6,74,30.32,10.0,East,13.8,-,N/A,,Overcast,90,2013-12-08 15:55:00
11:15 AM,23.2,16.0,74,30.31,10.0,East,13.8,17.3,N/A,,Overcast,80,2013-12-08 16:15:00
11:35 AM,23.7,16.3,73,30.30,7.0,East,15.0,21.9,N/A,,Overcast,100,2013-12-08 16:35:00
11:55 AM,23.9,16.0,72,30.27,7.0,East,13.8,24.2,N/A,,Overcast,100,2013-12-08 16:55:00
12:15 PM,23.9,16.2,72,30.26,7.0,East,12.7,-,N/A,,Overcast,100,2013-12-08 17:15:00
12:35 PM,24.3,16.9,73,30.25,3.0,East,11.5,18.4,N/A,Snow,Light Snow,100,2013-12-08 17:35:00
12:55 PM,24.4,17.4,75,30.23,3.0,East,12.7,20.7,N/A,Snow,Light Snow,100,2013-12-08 17:55:00
1:15 PM,24.6,18.3,77,30.21,4.0,East,13.8,19.6,N/A,,Haze,100,2013-12-08 18:15:00
1:35 PM,24.6,19.0,79,30.20,3.0,East,13.8,18.4,N/A,,Haze,90,2013-12-08 18:35:00
1:55 PM,24.6,19.8,82,30.18,2.5,East,12.7,19.6,N/A,Snow,Light Snow,90,2013-12-08 18:55:00
2:15 PM,24.8,20.3,83,30.17,2.0,East,10.4,16.1,N/A,Snow,Light Snow,90,2013-12-08 19:15:00
2:35 PM,25.2,20.8,84,30.16,2.0,East,9.2,-,N/A,Snow,Light Snow,90,2013-12-08 19:35:00
2:55 PM,25.2,21.0,84,30.14,4.0,East,16.1,19.6,N/A,Snow,Light Snow,100,2013-12-08 19:55:00
3:15 PM,25.2,20.8,84,30.12,5.0,East,12.7,-,N/A,,Overcast,100,2013-12-08 20:15:00
3:35 PM,25.5,21.2,84,30.11,4.0,East,12.7,18.4,N/A,,Overcast,100,2013-12-08 20:35:00
3:55 PM,25.3,21.0,84,30.10,5.0,ESE,16.1,19.6,N/A,,Overcast,110,2013-12-08 20:55:00
4:15 PM,25.2,20.7,83,30.09,7.0,East,12.7,-,N/A,,Overcast,100,2013-12-08 21:15:00
4:35 PM,25.2,20.5,82,30.08,7.0,East,9.2,20.7,N/A,,Overcast,100,2013-12-08 21:35:00
4:55 PM,25.2,20.7,83,30.09,7.0,East,9.2,17.3,N/A,,Overcast,100,2013-12-08 21:55:00
5:15 PM,25.2,20.8,84,30.09,10.0,East,8.1,-,N/A,,Overcast,100,2013-12-08 22:15:00
5:35 PM,25.0,21.0,85,30.06,7.0,ESE,11.5,-,N/A,,Overcast,110,2013-12-08 22:35:00
5:55 PM,25.2,21.2,85,30.04,7.0,ESE,13.8,-,N/A,,Overcast,110,2013-12-08 22:55:00
6:15 PM,25.0,21.4,86,30.05,4.0,ESE,13.8,-,N/A,,Overcast,120,2013-12-08 23:15:00
6:35 PM,25.2,22.5,89,30.06,2.5,ESE,10.4,-,N/A,,Overcast,120,2013-12-08 23:35:00
6:55 PM,25.2,23.7,94,30.04,4.0,ESE,11.5,-,N/A,,Overcast,120,2013-12-08 23:55:00
7:15 PM,25.2,23.9,95,30.04,4.0,ESE,6.9,-,N/A,,Overcast,120,2013-12-09 00:15:00
7:35 PM,25.5,24.4,96,30.03,4.0,ESE,8.1,-,N/A,,Overcast,120,2013-12-09 00:35:00
7:55 PM,25.5,24.6,96,30.01,4.0,ESE,10.4,-,N/A,,Overcast,120,2013-12-09 00:55:00
8:15 PM,25.7,24.8,96,30.01,4.0,SE,9.2,-,N/A,,Overcast,130,2013-12-09 01:15:00
8:35 PM,25.7,25.2,98,30.01,3.0,SE,8.1,-,N/A,,Overcast,140,2013-12-09 01:35:00
8:55 PM,26.1,25.7,99,30.02,2.5,SSE,9.2,-,N/A,,Overcast,150,2013-12-09 01:55:00
9:15 PM,26.4,26.1,99,30.02,2.0,SSE,8.1,-,N/A,,Overcast,160,2013-12-09 02:15:00
9:35 PM,26.6,26.2,99,30.00,1.5,South,6.9,-,N/A,,Overcast,170,2013-12-09 02:35:00
9:55 PM,26.6,26.6,100,29.99,1.8,South,5.8,-,N/A,,Overcast,170,2013-12-09 02:55:00
10:15 PM,27.0,27.0,100,29.99,2.0,South,8.1,-,N/A,,Overcast,180,2013-12-09 03:15:00
10:35 PM,27.5,27.5,100,29.98,2.0,South,5.8,-,N/A,,Overcast,180,2013-12-09 03:35:00
10:55 PM,27.7,27.7,100,29.98,4.0,South,8.1,-,N/A,,Overcast,190,2013-12-09 03:55:00
11:15 PM,28.0,28.0,100,29.98,5.0,SSW,10.4,-,N/A,,Overcast,200,2013-12-09 04:15:00
11:35 PM,28.2,28.2,100,29.98,4.0,SSW,8.1,-,N/A,,Overcast,210,2013-12-09 04:35:00
11:55 PM,28.4,28.2,99,29.97,5.0,SSW,9.2,-,N/A,,Overcast,210,2013-12-09 04:55:00